createdAt,value
2018-10-09T00:00:35.583Z,10.10
2018-10-09T00:03:10.012Z,10.10
2018-10-09T00:05:44.366Z,10.10
2018-10-09T00:08:18.722Z,10.20
2018-10-09T00:10:52.945Z,10.20
2018-10-09T00:13:27.259Z,10.10
2018-10-09T00:16:01.456Z,10.00
2018-10-09T00:18:35.921Z,10.10
2018-10-09T00:21:10.208Z,10.10
2018-10-09T00:23:44.374Z,10.10
2018-10-09T00:26:18.802Z,10.00
2018-10-09T00:28:53.154Z,10.10
2018-10-09T00:31:27.554Z,10.10
2018-10-09T00:34:01.916Z,9.90
2018-10-09T00:36:36.059Z,9.90
2018-10-09T00:39:11.177Z,9.90
2018-10-09T00:41:45.470Z,9.80
2018-10-09T00:44:19.851Z,9.80
2018-10-09T00:46:54.222Z,9.80
2018-10-09T00:49:28.611Z,9.70
2018-10-09T00:52:02.830Z,9.70
2018-10-09T00:54:37.154Z,9.70
2018-10-09T00:57:11.438Z,9.70
2018-10-09T00:59:45.714Z,9.70
2018-10-09T01:02:20.049Z,9.60
2018-10-09T01:04:54.621Z,9.60
2018-10-09T01:07:28.973Z,9.60
2018-10-09T01:10:03.346Z,9.50
2018-10-09T01:12:37.723Z,9.60
2018-10-09T01:15:11.946Z,9.50
2018-10-09T01:17:46.242Z,9.50
2018-10-09T01:20:24.768Z,9.50
2018-10-09T01:22:59.716Z,9.40
2018-10-09T01:25:35.034Z,9.40
2018-10-09T01:28:09.314Z,9.40
2018-10-09T01:30:43.590Z,9.40
2018-10-09T01:33:17.842Z,9.30
2018-10-09T01:35:52.186Z,9.30
2018-10-09T01:38:26.478Z,9.30
2018-10-09T01:41:00.761Z,9.40
2018-10-09T01:43:35.154Z,9.30
2018-10-09T01:46:09.471Z,9.30
2018-10-09T01:48:43.841Z,9.30
2018-10-09T01:51:18.130Z,9.30
2018-10-09T01:53:52.395Z,9.20
2018-10-09T01:56:26.697Z,9.20
2018-10-09T01:59:01.118Z,9.20
2018-10-09T02:01:35.434Z,9.20
2018-10-09T02:04:09.642Z,9.10
2018-10-09T02:06:43.970Z,9.10
2018-10-09T02:09:18.230Z,9.10
2018-10-09T02:11:52.506Z,9.00
2018-10-09T02:14:26.790Z,9.00
2018-10-09T02:17:01.082Z,9.00
2018-10-09T02:19:35.391Z,9.00
2018-10-09T02:22:09.593Z,9.00
2018-10-09T02:24:43.916Z,9.00
2018-10-09T02:27:18.455Z,9.00
2018-10-09T02:29:52.745Z,9.00
2018-10-09T02:32:27.076Z,8.90
2018-10-09T02:35:01.300Z,8.90
2018-10-09T02:37:35.565Z,8.90
2018-10-09T02:40:09.816Z,8.90
2018-10-09T02:42:44.175Z,8.90
2018-10-09T02:45:18.490Z,8.90
2018-10-09T02:47:52.834Z,8.90
2018-10-09T02:50:27.121Z,8.90
2018-10-09T02:53:01.517Z,8.90
2018-10-09T02:55:35.838Z,8.90
2018-10-09T02:58:10.301Z,8.90
2018-10-09T03:00:44.741Z,8.80
2018-10-09T03:03:19.086Z,8.90
2018-10-09T03:05:53.454Z,8.80
2018-10-09T03:08:27.822Z,8.80
2018-10-09T03:11:02.084Z,8.80
2018-10-09T03:13:36.365Z,8.80
2018-10-09T03:16:10.618Z,8.80
2018-10-09T03:18:45.022Z,8.80
2018-10-09T03:21:19.201Z,8.80
2018-10-09T03:23:53.554Z,8.80
2018-10-09T03:26:27.802Z,8.80
2018-10-09T03:29:02.191Z,8.80
2018-10-09T03:31:36.391Z,8.80
2018-10-09T03:34:10.717Z,8.80
2018-10-09T03:36:44.973Z,8.90
2018-10-09T03:39:19.310Z,8.90
2018-10-09T03:41:53.498Z,8.90
2018-10-09T03:44:27.818Z,9.00
2018-10-09T03:47:02.110Z,8.90
2018-10-09T03:49:36.645Z,9.00
2018-10-09T03:52:11.003Z,8.90
2018-10-09T03:54:45.472Z,8.90
2018-10-09T03:57:19.694Z,8.90
2018-10-09T03:59:53.898Z,8.90
2018-10-09T04:02:28.110Z,8.80
2018-10-09T04:05:02.299Z,8.80
2018-10-09T04:07:36.641Z,8.80
2018-10-09T04:10:10.926Z,8.80
2018-10-09T04:12:45.237Z,8.80
2018-10-09T04:15:19.503Z,8.80
2018-10-09T04:17:54.629Z,8.70
2018-10-09T04:20:28.830Z,8.70
2018-10-09T04:23:03.042Z,8.70
2018-10-09T04:25:37.202Z,8.70
2018-10-09T04:28:11.510Z,8.60
2018-10-09T04:30:45.849Z,8.60
2018-10-09T04:33:20.155Z,8.60
2018-10-09T04:35:54.519Z,8.70
2018-10-09T04:38:28.870Z,8.70
2018-10-09T04:41:03.098Z,8.70
2018-10-09T04:43:37.390Z,8.60
2018-10-09T04:46:11.653Z,8.60
2018-10-09T04:48:45.978Z,8.50
2018-10-09T04:51:20.285Z,8.50
2018-10-09T04:53:54.654Z,8.50
2018-10-09T04:56:28.926Z,8.50
2018-10-09T04:59:03.353Z,8.40
2018-10-09T05:01:37.730Z,8.40
2018-10-09T05:04:11.998Z,8.50
2018-10-09T05:06:46.158Z,8.50
2018-10-09T05:09:20.534Z,8.50
2018-10-09T05:11:54.818Z,8.50
2018-10-09T05:14:29.116Z,8.50
2018-10-09T05:17:03.421Z,8.50
2018-10-09T05:19:37.818Z,8.60
2018-10-09T05:22:12.111Z,8.60
2018-10-09T05:24:46.434Z,8.60
2018-10-09T05:27:20.642Z,8.60
2018-10-09T05:29:54.987Z,8.60
2018-10-09T05:32:29.407Z,8.60
2018-10-09T05:35:03.757Z,8.60
2018-10-09T05:37:38.041Z,8.70
2018-10-09T05:40:12.397Z,8.60
2018-10-09T05:42:46.560Z,8.60
2018-10-09T05:45:20.865Z,8.70
2018-10-09T05:47:55.173Z,8.80
2018-10-09T05:50:29.494Z,8.80
2018-10-09T05:53:03.729Z,8.80
2018-10-09T05:55:38.102Z,8.90
2018-10-09T05:58:12.479Z,8.90
2018-10-09T06:00:46.682Z,8.90
2018-10-09T06:03:20.973Z,8.90
2018-10-09T06:05:55.178Z,8.90
2018-10-09T06:08:29.474Z,8.90
2018-10-09T06:11:03.762Z,8.90
2018-10-09T06:13:38.103Z,8.90
2018-10-09T06:16:12.454Z,8.90
2018-10-09T06:18:46.714Z,9.00
2018-10-09T06:21:20.965Z,9.00
2018-10-09T06:23:55.290Z,9.00
2018-10-09T06:26:29.493Z,9.10
2018-10-09T06:29:03.802Z,9.10
2018-10-09T06:31:37.949Z,9.10
2018-10-09T06:34:12.330Z,9.10
2018-10-09T06:36:46.561Z,9.20
2018-10-09T06:39:21.041Z,9.30
2018-10-09T06:41:55.270Z,9.30
2018-10-09T06:44:29.630Z,9.20
2018-10-09T06:47:03.926Z,9.30
2018-10-09T06:49:38.210Z,9.30
2018-10-09T06:52:12.686Z,9.40
2018-10-09T06:54:47.089Z,9.50
2018-10-09T06:57:21.367Z,9.50
2018-10-09T06:59:55.587Z,9.50
2018-10-09T07:02:30.011Z,9.50
2018-10-09T07:05:04.323Z,9.60
2018-10-09T07:07:38.650Z,9.70
2018-10-09T07:10:12.983Z,9.70
2018-10-09T07:12:47.255Z,9.80
2018-10-09T07:15:21.565Z,9.80
2018-10-09T07:17:55.966Z,9.80
2018-10-09T07:20:30.258Z,9.90
2018-10-09T07:23:04.543Z,9.90
2018-10-09T07:25:39.095Z,10.00
2018-10-09T07:28:13.378Z,10.00
2018-10-09T07:30:47.682Z,10.10
2018-10-09T07:33:22.006Z,10.10
2018-10-09T07:35:56.439Z,10.20
2018-10-09T07:38:30.742Z,10.40
2018-10-09T07:41:05.251Z,10.40
2018-10-09T07:43:39.639Z,10.60
2018-10-09T07:46:13.958Z,10.60
2018-10-09T07:48:48.213Z,10.70
2018-10-09T07:51:22.491Z,10.70
2018-10-09T07:53:57.282Z,10.90
2018-10-09T07:56:31.543Z,11.00
2018-10-09T07:59:05.790Z,11.20
2018-10-09T08:01:40.055Z,11.30
2018-10-09T08:04:14.458Z,11.40
2018-10-09T08:06:48.671Z,11.40
2018-10-09T08:09:23.111Z,11.50
2018-10-09T08:11:57.458Z,11.70
2018-10-09T08:14:31.680Z,11.80
2018-10-09T08:17:06.350Z,11.90
2018-10-09T08:19:40.526Z,12.00
2018-10-09T08:22:14.797Z,12.10
2018-10-09T08:24:49.066Z,12.20
2018-10-09T08:27:23.423Z,12.40
2018-10-09T08:29:57.976Z,12.40
2018-10-09T08:32:32.431Z,12.50
2018-10-09T08:35:06.761Z,12.50
2018-10-09T08:37:41.037Z,12.50
2018-10-09T08:40:15.533Z,12.60
2018-10-09T08:42:49.618Z,12.80
2018-10-09T08:45:23.951Z,12.80
2018-10-09T08:47:58.294Z,12.90
2018-10-09T08:50:32.775Z,13.00
2018-10-09T08:53:07.167Z,13.10
2018-10-09T08:55:41.466Z,13.20
2018-10-09T08:58:15.659Z,13.50
2018-10-09T09:00:49.870Z,13.40
2018-10-09T09:03:24.155Z,13.50
2018-10-09T09:05:58.437Z,13.60
2018-10-09T09:08:32.699Z,13.80
2018-10-09T09:11:07.207Z,14.00
2018-10-09T09:13:41.437Z,14.10
2018-10-09T09:16:15.643Z,14.20
2018-10-09T09:18:49.819Z,14.40
2018-10-09T09:21:24.202Z,14.50
2018-10-09T09:23:58.552Z,14.70
2018-10-09T09:26:32.934Z,14.80
2018-10-09T09:29:07.279Z,14.80
2018-10-09T09:31:41.610Z,14.80
2018-10-09T09:34:16.031Z,14.80
2018-10-09T09:36:50.430Z,15.00
2018-10-09T09:39:24.629Z,15.10
2018-10-09T09:41:59.078Z,15.20
2018-10-09T09:44:33.403Z,15.40
2018-10-09T09:47:07.702Z,15.50
2018-10-09T09:49:41.951Z,15.60
2018-10-09T09:52:16.286Z,15.70
2018-10-09T09:54:50.378Z,15.70
2018-10-09T09:57:24.859Z,15.80
2018-10-09T09:59:59.166Z,16.00
2018-10-09T10:02:33.599Z,16.00
2018-10-09T10:05:07.946Z,16.10
2018-10-09T10:07:42.235Z,16.30
2018-10-09T10:10:16.691Z,16.30
2018-10-09T10:12:50.959Z,16.40
2018-10-09T10:15:25.355Z,16.50
2018-10-09T10:17:59.770Z,16.60
2018-10-09T10:20:34.154Z,16.80
2018-10-09T10:23:08.417Z,16.80
2018-10-09T10:25:42.774Z,16.90
2018-10-09T10:28:17.446Z,17.00
2018-10-09T10:30:51.658Z,17.10
2018-10-09T10:33:26.071Z,17.20
2018-10-09T10:36:00.391Z,17.30
2018-10-09T10:38:34.927Z,17.40
2018-10-09T10:41:09.350Z,17.50
2018-10-09T10:43:43.850Z,17.60
2018-10-09T10:46:18.011Z,17.50
2018-10-09T10:49:00.658Z,17.60
2018-10-09T10:51:35.142Z,17.70
2018-10-09T10:54:09.448Z,17.80
2018-10-09T10:56:43.655Z,17.80
2018-10-09T10:59:17.859Z,17.80
2018-10-09T11:01:52.253Z,17.90
2018-10-09T11:04:26.503Z,17.80
2018-10-09T11:07:00.800Z,17.80
2018-10-09T11:09:35.083Z,17.90
2018-10-09T11:12:09.407Z,17.90
2018-10-09T11:14:43.787Z,18.00
2018-10-09T11:17:18.054Z,18.10
2018-10-09T11:19:52.438Z,18.10
2018-10-09T11:22:26.951Z,18.10
2018-10-09T11:25:01.272Z,18.10
2018-10-09T11:27:35.565Z,18.20
2018-10-09T11:30:09.989Z,18.40
2018-10-09T11:32:44.320Z,18.60
2018-10-09T11:35:18.658Z,18.60
2018-10-09T11:37:53.122Z,18.70
2018-10-09T11:40:27.391Z,18.80
2018-10-09T11:43:01.698Z,18.90
2018-10-09T11:45:36.018Z,19.00
2018-10-09T11:48:10.433Z,18.90
2018-10-09T11:50:44.643Z,19.00
2018-10-09T11:53:19.035Z,19.00
2018-10-09T11:55:53.242Z,18.80
2018-10-09T11:58:27.618Z,18.80
2018-10-09T12:01:04.467Z,19.00
2018-10-09T12:03:38.859Z,19.00
2018-10-09T12:06:13.026Z,19.10
2018-10-09T12:08:47.280Z,19.10
2018-10-09T12:11:21.787Z,19.10
2018-10-09T12:13:56.267Z,19.20
2018-10-09T12:16:30.499Z,19.30
2018-10-09T12:19:04.729Z,19.30
2018-10-09T12:21:39.032Z,19.50
2018-10-09T12:24:13.371Z,19.60
2018-10-09T12:26:47.594Z,19.70
2018-10-09T12:29:21.899Z,19.80
2018-10-09T12:31:56.115Z,19.90
2018-10-09T12:34:30.462Z,20.00
2018-10-09T12:37:04.706Z,20.10
2018-10-09T12:39:39.219Z,20.10
2018-10-09T12:42:13.482Z,20.20
2018-10-09T12:44:47.830Z,20.00
2018-10-09T12:47:22.145Z,20.10
2018-10-09T12:49:56.530Z,19.90
2018-10-09T12:52:30.834Z,20.10
2018-10-09T12:55:05.327Z,20.20
2018-10-09T12:57:39.587Z,19.80
2018-10-09T13:00:13.927Z,19.90
2018-10-09T13:02:48.207Z,20.10
2018-10-09T13:05:22.504Z,20.10
2018-10-09T13:07:56.806Z,20.00
2018-10-09T13:10:31.135Z,20.10
2018-10-09T13:13:05.791Z,20.10
2018-10-09T13:15:40.051Z,20.40
2018-10-09T13:18:14.251Z,20.40
2018-10-09T13:20:48.784Z,20.50
2018-10-09T13:23:22.955Z,20.60
2018-10-09T13:25:57.330Z,20.70
2018-10-09T13:28:31.694Z,20.80
2018-10-09T13:31:06.120Z,20.80
2018-10-09T13:33:40.491Z,20.80
2018-10-09T13:36:14.898Z,20.80
2018-10-09T13:38:49.178Z,20.80
2018-10-09T13:41:23.534Z,20.90
2018-10-09T13:43:57.840Z,20.70
2018-10-09T13:46:32.138Z,20.70
2018-10-09T13:49:06.934Z,20.60
2018-10-09T13:51:41.134Z,20.70
2018-10-09T13:54:15.331Z,20.90
2018-10-09T13:56:49.809Z,20.80
2018-10-09T13:59:24.022Z,21.00
2018-10-09T14:01:58.361Z,21.10
2018-10-09T14:04:32.589Z,21.10
2018-10-09T14:07:06.907Z,21.10
2018-10-09T14:09:41.231Z,21.10
2018-10-09T14:12:15.548Z,21.20
2018-10-09T14:14:49.928Z,21.10
2018-10-09T14:17:24.258Z,21.20
2018-10-09T14:19:58.631Z,21.20
2018-10-09T14:22:32.890Z,21.10
2018-10-09T14:25:07.178Z,20.90
2018-10-09T14:27:41.514Z,20.90
2018-10-09T14:30:15.811Z,21.00
2018-10-09T14:32:50.082Z,21.00
2018-10-09T14:35:24.319Z,21.00
2018-10-09T14:37:58.599Z,21.00
2018-10-09T14:40:33.131Z,20.70
2018-10-09T14:43:07.478Z,20.80
2018-10-09T14:45:41.899Z,20.70
2018-10-09T14:48:16.090Z,20.70
2018-10-09T14:50:50.362Z,20.80
2018-10-09T14:53:24.613Z,20.80
2018-10-09T14:55:58.939Z,20.60
2018-10-09T14:58:33.315Z,20.70
2018-10-09T15:01:07.855Z,20.70
2018-10-09T15:03:42.258Z,20.80
2018-10-09T15:06:16.627Z,20.90
2018-10-09T15:08:51.082Z,21.10
2018-10-09T15:11:25.346Z,21.20
2018-10-09T15:13:59.747Z,21.20
2018-10-09T15:16:34.038Z,21.20
2018-10-09T15:19:08.742Z,21.30
2018-10-09T15:21:42.957Z,21.30
2018-10-09T15:24:17.343Z,21.30
2018-10-09T15:26:51.538Z,21.40
2018-10-09T15:29:25.746Z,21.50
2018-10-09T15:32:00.126Z,21.50
2018-10-09T15:34:34.474Z,21.60
2018-10-09T15:37:08.779Z,21.60
2018-10-09T15:39:43.114Z,21.70
2018-10-09T15:42:17.411Z,21.70
2018-10-09T15:44:51.702Z,21.60
2018-10-09T15:47:25.993Z,21.80
2018-10-09T15:50:00.354Z,21.90
2018-10-09T15:52:34.587Z,21.80
2018-10-09T15:55:08.787Z,21.80
2018-10-09T15:57:43.095Z,21.80
2018-10-09T16:00:17.370Z,21.70
2018-10-09T16:02:51.621Z,21.60
2018-10-09T16:05:25.851Z,21.30
2018-10-09T16:08:00.315Z,21.20
2018-10-09T16:10:34.601Z,20.80
2018-10-09T16:13:08.830Z,20.60
2018-10-09T16:15:43.142Z,20.40
2018-10-09T16:18:17.426Z,20.30
2018-10-09T16:20:51.801Z,20.10
2018-10-09T16:23:25.936Z,20.00
2018-10-09T16:26:00.206Z,19.90
2018-10-09T16:28:34.411Z,19.70
2018-10-09T16:31:08.779Z,19.50
2018-10-09T16:33:43.105Z,19.40
2018-10-09T16:36:17.435Z,19.20
2018-10-09T16:38:51.803Z,19.10
2018-10-09T16:41:26.206Z,18.90
2018-10-09T16:44:00.562Z,18.80
2018-10-09T16:46:34.766Z,18.70
2018-10-09T16:49:08.938Z,18.60
2018-10-09T16:51:43.174Z,18.50
2018-10-09T16:54:17.326Z,18.50
2018-10-09T16:56:51.635Z,18.30
2018-10-09T16:59:25.933Z,18.10
2018-10-09T17:02:00.163Z,18.10
2018-10-09T17:04:34.419Z,17.60
2018-10-09T17:07:08.848Z,17.80
2018-10-09T17:09:43.054Z,17.80
2018-10-09T17:12:17.379Z,17.70
2018-10-09T17:14:51.698Z,17.70
2018-10-09T17:17:26.110Z,17.60
2018-10-09T17:20:00.366Z,17.50
2018-10-09T17:22:34.651Z,17.30
2018-10-09T17:25:08.931Z,17.30
2018-10-09T17:27:43.296Z,17.20
2018-10-09T17:30:17.611Z,17.10
2018-10-09T17:32:52.032Z,17.00
2018-10-09T17:35:26.499Z,17.00
2018-10-09T17:38:00.683Z,16.90
2018-10-09T17:40:34.994Z,16.90
2018-10-09T17:43:09.212Z,16.80
2018-10-09T17:45:43.402Z,16.70
2018-10-09T17:48:17.646Z,16.60
2018-10-09T17:50:51.915Z,16.50
2018-10-09T17:53:26.117Z,16.50
2018-10-09T17:56:00.279Z,16.40
2018-10-09T17:58:35.089Z,16.30
2018-10-09T18:01:09.378Z,16.30
2018-10-09T18:03:43.739Z,16.20
2018-10-09T18:06:17.935Z,16.20
2018-10-09T18:08:52.336Z,16.10
2018-10-09T18:11:26.642Z,16.00
2018-10-09T18:14:00.918Z,16.00
2018-10-09T18:16:35.266Z,15.90
2018-10-09T18:19:09.647Z,15.90
2018-10-09T18:21:43.898Z,15.90
2018-10-09T18:24:18.230Z,15.80
2018-10-09T18:26:52.444Z,15.70
2018-10-09T18:29:26.886Z,15.70
2018-10-09T18:32:01.251Z,15.60
2018-10-09T18:34:35.678Z,15.60
2018-10-09T18:37:10.007Z,15.60
2018-10-09T18:39:44.314Z,15.60
2018-10-09T18:42:18.688Z,15.50
2018-10-09T18:44:52.915Z,15.50
2018-10-09T18:47:32.680Z,15.40
2018-10-09T18:50:07.138Z,15.40
2018-10-09T18:52:42.002Z,15.30
2018-10-09T18:55:17.438Z,15.30
2018-10-09T18:57:51.774Z,15.20
2018-10-09T19:00:26.155Z,15.20
2018-10-09T19:03:00.534Z,15.20
2018-10-09T19:05:34.963Z,15.20
2018-10-09T19:08:09.298Z,15.10
2018-10-09T19:10:43.653Z,15.10
2018-10-09T19:13:18.190Z,15.00
2018-10-09T19:15:52.400Z,15.00
2018-10-09T19:18:26.786Z,15.00
2018-10-09T19:21:01.043Z,14.90
2018-10-09T19:23:35.396Z,14.80
2018-10-09T19:26:09.622Z,14.80
2018-10-09T19:28:43.970Z,14.80
2018-10-09T19:31:18.351Z,14.80
2018-10-09T19:33:52.735Z,14.80
2018-10-09T19:36:27.126Z,14.70
2018-10-09T19:39:01.562Z,14.60
2018-10-09T19:41:35.838Z,14.60
2018-10-09T19:44:10.294Z,14.50
2018-10-09T19:46:44.527Z,14.50
2018-10-09T19:49:18.962Z,14.50
2018-10-09T19:51:53.450Z,14.40
2018-10-09T19:54:28.091Z,14.40
2018-10-09T19:57:02.298Z,14.40
2018-10-09T19:59:36.658Z,14.30
2018-10-09T20:02:10.978Z,14.40
2018-10-09T20:04:45.270Z,14.30
2018-10-09T20:07:19.562Z,14.30
2018-10-09T20:09:53.891Z,14.20
2018-10-09T20:12:28.243Z,14.20
2018-10-09T20:15:02.706Z,14.20
2018-10-09T20:17:37.039Z,14.20
2018-10-09T20:20:11.212Z,14.10
2018-10-09T20:22:45.543Z,14.10
2018-10-09T20:25:19.893Z,14.10
2018-10-09T20:27:54.214Z,14.00
2018-10-09T20:30:28.569Z,14.00
2018-10-09T20:33:02.827Z,14.00
2018-10-09T20:35:37.215Z,13.90
2018-10-09T20:38:11.503Z,13.90
2018-10-09T20:40:45.863Z,13.80
2018-10-09T20:43:20.235Z,13.80
2018-10-09T20:45:54.647Z,13.80
2018-10-09T20:48:30.041Z,13.70
2018-10-09T20:51:04.375Z,13.80
2018-10-09T20:53:38.558Z,13.70
2018-10-09T20:56:12.955Z,13.60
2018-10-09T20:58:47.273Z,13.60
2018-10-09T21:01:21.551Z,13.50
2018-10-09T21:03:55.822Z,13.50
2018-10-09T21:06:30.120Z,13.50
2018-10-09T21:09:05.075Z,13.40
2018-10-09T21:11:39.491Z,13.40
2018-10-09T21:14:13.847Z,13.40
2018-10-09T21:16:48.243Z,13.30
2018-10-09T21:19:22.631Z,13.30
2018-10-09T21:21:57.035Z,13.30
2018-10-09T21:24:31.452Z,13.20
2018-10-09T21:27:05.730Z,13.10
2018-10-09T21:29:40.079Z,13.10
2018-10-09T21:32:14.370Z,13.10
2018-10-09T21:34:48.677Z,13.10
2018-10-09T21:37:23.138Z,13.10
2018-10-09T21:39:57.332Z,12.90
2018-10-09T21:42:31.511Z,13.00
2018-10-09T21:45:05.972Z,13.00
2018-10-09T21:47:44.416Z,12.90
2018-10-09T21:50:18.623Z,12.90
2018-10-09T21:52:52.922Z,12.80
2018-10-09T21:55:27.694Z,12.80
2018-10-09T21:58:01.913Z,12.70
2018-10-09T22:00:41.603Z,12.80
2018-10-09T22:03:15.841Z,12.80
2018-10-09T22:05:50.151Z,12.70
2018-10-09T22:08:24.574Z,12.70
2018-10-09T22:10:58.958Z,12.60
2018-10-09T22:13:33.206Z,12.60
2018-10-09T22:16:07.554Z,12.60
2018-10-09T22:18:41.883Z,12.60
2018-10-09T22:21:16.063Z,12.50
2018-10-09T22:23:50.517Z,12.50
2018-10-09T22:26:24.822Z,12.50
2018-10-09T22:28:59.003Z,12.50
2018-10-09T22:31:33.278Z,12.40
2018-10-09T22:34:07.870Z,12.40
2018-10-09T22:36:42.204Z,12.40
2018-10-09T22:39:16.494Z,12.30
2018-10-09T22:41:50.732Z,12.30
2018-10-09T22:44:25.003Z,12.30
2018-10-09T22:46:59.306Z,12.30
2018-10-09T22:49:33.571Z,12.20
2018-10-09T22:52:07.847Z,12.20
2018-10-09T22:54:42.043Z,12.20
2018-10-09T22:57:16.346Z,12.10
2018-10-09T22:59:50.629Z,12.10
2018-10-09T23:02:24.799Z,12.10
2018-10-09T23:04:59.054Z,12.10
2018-10-09T23:07:33.304Z,12.00
2018-10-09T23:10:07.711Z,12.00
2018-10-09T23:12:41.898Z,12.00
2018-10-09T23:15:16.240Z,12.00
2018-10-09T23:17:50.606Z,11.90
2018-10-09T23:20:24.984Z,11.80
2018-10-09T23:22:59.234Z,11.80
2018-10-09T23:25:34.856Z,11.80
2018-10-09T23:28:09.262Z,11.80
2018-10-09T23:30:43.582Z,11.80
2018-10-09T23:33:17.773Z,11.80
2018-10-09T23:35:52.108Z,11.80
2018-10-09T23:38:26.347Z,11.70
2018-10-09T23:41:00.664Z,11.70
2018-10-09T23:43:35.095Z,11.70
2018-10-09T23:46:09.370Z,11.70
2018-10-09T23:48:43.679Z,11.60
2018-10-09T23:51:18.027Z,11.60
2018-10-09T23:53:52.478Z,11.60
2018-10-09T23:56:26.943Z,11.50
2018-10-09T23:59:01.288Z,11.50
